• Join FlightAware (Why Join?)
  • Login
  • US Flag 
01:28PM EDT


 

Airport Tracker/Info


-or-


 

Live Flight TrackerFlight Track Log ✈ VH-FGR ✈ 14-Oct-2013 ✈ YFRG - YBAS / ASP

Flight Track Log - Related Links

Times and Time Zones

All times are in EDT time to prevent confusion due to time zone crossing. See the VH-FGR flight status page for this flight to view local times or setup timezone preferences in your user account.

Time Position Orientation Groundspeed Altitude Reporting Facility
EDT Latitude Longitude Course Direction KTS MPH feet Rate Location/Type
12:05PM -26.4508 132.2255 360° North 2,700  Level Aus ATC (Calculated)
12:06PM -26.4508 132.2255 30° Northeast 2,700  Level Aus ATC (Calculated)
12:08PM -26.3626 132.2818 30° Northeast  Level FlightAware Approximate
12:09PM -26.3080 132.3165 30° Northeast  Level FlightAware Approximate
12:09PM -26.2853 132.3310 30° Northeast 2,700  Level Aus ATC (Calculated)
12:10PM -26.2534 132.3512 30° Northeast  Level FlightAware Approximate
12:10PM -26.2853 132.3310 360° North 2,700  Level Aus ATC (Calculated)
12:10PM -26.2853 132.3310 30° Northeast 2,700  Level Aus ATC (Calculated)
12:11PM -26.2298 132.3662 30° Northeast  Level FlightAware Approximate
12:12PM -26.2034 132.3830 30° Northeast  Level FlightAware Approximate
12:13PM -26.1488 132.4176 30° Northeast  Level FlightAware Approximate
12:14PM -26.0942 132.4522 30° Northeast  Level FlightAware Approximate
12:15PM -26.0396 132.4868 30° Northeast  Level FlightAware Approximate
12:16PM -25.9849 132.5213 30° Northeast  Level FlightAware Approximate
12:17PM -25.9303 132.5558 30° Northeast  Level FlightAware Approximate
12:18PM -25.8757 132.5903 30° Northeast  Level FlightAware Approximate
12:19PM -25.8210 132.6248 30° Northeast  Level FlightAware Approximate
12:20PM -25.7664 132.6592 30° Northeast  Level FlightAware Approximate
12:21PM -25.7117 132.6935 30° Northeast  Level FlightAware Approximate
12:22PM -25.6570 132.7279 30° Northeast  Level FlightAware Approximate
12:23PM -25.6024 132.7622 30° Northeast  Level FlightAware Approximate
12:24PM -25.5477 132.7965 30° Northeast  Level FlightAware Approximate
12:25PM -25.4930 132.8307 29° Northeast  Level FlightAware Approximate
12:26PM -25.4383 132.8650 29° Northeast  Level FlightAware Approximate
12:27PM -25.3836 132.8992 29° Northeast  Level FlightAware Approximate
12:28PM -25.3289 132.9333 29° Northeast  Level FlightAware Approximate
12:28PM -25.1190 133.0640 360° North 2,700  Level Aus ATC (Calculated)
12:29PM -25.1190 133.0640 29° Northeast 2,700  Level Aus ATC (Calculated)
12:30PM -25.0478 133.1082 29° Northeast  Level FlightAware Approximate
12:31PM -25.0168 133.1275 29° Northeast  Level FlightAware Approximate
12:32PM -24.9620 133.1614 29° Northeast  Level FlightAware Approximate
12:33PM -24.9072 133.1953 29° Northeast  Level FlightAware Approximate
12:34PM -24.8525 133.2292 29° Northeast  Level FlightAware Approximate
12:35PM -24.7977 133.2631 29° Northeast  Level FlightAware Approximate
12:36PM -24.7429 133.2970 29° Northeast  Level FlightAware Approximate
12:37PM -24.6881 133.3308 29° Northeast  Level FlightAware Approximate
12:37PM -24.5393 133.4223 209° Southwest 2,700  Level Aus ATC (Calculated)
12:38PM -24.6332 133.3645 29° Northeast  Level FlightAware Approximate
12:39PM -24.4754 133.4616 29° Northeast  Level FlightAware Approximate
12:40PM -24.4205 133.4953 29° Northeast  Level FlightAware Approximate
12:40PM -24.3995 133.5082 31° Northeast 2,700  Level Aus ATC (Calculated)
12:42PM -24.2948 133.5781 127° Southeast  Level Estimated
12:42PM -24.3237 133.5546 29° Northeast 2,700  Level Aus ATC (Calculated)
12:43PM -24.2573 133.5952 32° Northeast 2,700  Level Aus ATC (Calculated)
12:45PM -24.2487 133.6012 127° Southeast  Level Estimated
12:45PM -24.1412 133.6662 33° Northeast 2,700  Level Aus ATC (Calculated)
12:47PM -24.1322 133.6726 127° Southeast  Level Estimated
12:47PM -23.9670 133.7723 37° Northeast 2,700  Level Aus ATC (Calculated)
12:49PM -23.9600 133.7780 127° Southeast  Level Estimated
12:49PM -23.7927 133.8782 208° Southwest 2,700  Level Aus ATC (Calculated)
12:50PM -23.9549 133.7821 127° Southeast  Level Estimated
12:50PM -23.8005 133.8896 313° West 1,800  Level Aus ATC (Calculated)
12:51PM -23.7968 133.8853 127° Southeast  Level Estimated
12:52PM -23.8083 133.9009 127° Southeast  Level FlightAware Approximate
12:53PM -23.8067 133.9022 127° Southeast  Level Estimated
12:54PM -23.8083 133.9009 127° Southeast  Level FlightAware Approximate
12:55PM -23.8067 133.9022 127° Southeast  Level Estimated
12:56PM -23.8083 133.9009 127° Southeast  Level FlightAware Approximate
12:57PM -23.8067 133.9022 127° Southeast  Level Estimated
12:58PM -23.8083 133.9009 127° Southeast  Level FlightAware Approximate
12:59PM -23.8067 133.9022 127° Southeast  Level Estimated
01:00PM -23.8083 133.9009 127° Southeast  Level FlightAware Approximate
01:01PM -23.8067 133.9022 127° Southeast  Level Estimated
01:02PM -23.8083 133.9009 127° Southeast  Level FlightAware Approximate
01:03PM -23.8067 133.9022 127° Southeast  Level Estimated
01:04PM -23.8083 133.9009 127° Southeast  Level FlightAware Approximate
01:05PM -23.8067 133.9022 127° Southeast  Level Estimated
01:06PM -23.8083 133.9009 127° Southeast  Level FlightAware Approximate
01:07PM -23.8067 133.9022 127° Southeast  Level Estimated
01:08PM -23.8083 133.9009 127° Southeast  Level FlightAware Approximate
01:09PM -23.8067 133.9022 127° Southeast  Level Estimated
01:10PM -23.8083 133.9009 127° Southeast  Level FlightAware Approximate
01:11PM -23.8067 133.9022 127° Southeast  Level Estimated
01:12PM -23.8083 133.9009 127° Southeast  Level FlightAware Approximate
01:13PM -23.8067 133.9022 127° Southeast  Level Estimated
01:14PM -23.8083 133.9009 127° Southeast  Level FlightAware Approximate
01:15PM -23.8067 133.9022 127° Southeast  Level Estimated
01:16PM -23.8083 133.9009 127° Southeast  Level FlightAware Approximate
01:17PM -23.8067 133.9022 127° Southeast  Level Estimated
01:18PM -23.8083 133.9009 127° Southeast  Level FlightAware Approximate
01:19PM -23.8067 133.9022 127° Southeast  Level Estimated
01:20PM -23.8083 133.9009 127° Southeast  Level FlightAware Approximate
01:21PM -23.8067 133.9022 127° Southeast  Level Estimated
01:22PM -23.8083 133.9009 127° Southeast  Level FlightAware Approximate
01:23PM -23.8067 133.9022 127° Southeast  Level Estimated
01:24PM -23.8083 133.9009 127° Southeast  Level FlightAware Approximate
01:25PM -23.8067 133.9022 127° Southeast  Level Estimated
01:26PM -23.8083 133.9009 127° Southeast  Level FlightAware Approximate
01:27PM -23.8067 133.9022 127° Southeast  Level Estimated
01:28PM -23.8083 133.9009 127° Southeast  Level FlightAware Approximate
01:29PM -23.8067 133.9022 127° Southeast  Level Estimated
01:30PM -23.8083 133.9009 127° Southeast  Level FlightAware Approximate
01:31PM -23.8067 133.9022 127° Southeast  Level Estimated
01:32PM -23.8083 133.9009 127° Southeast  Level FlightAware Approximate
01:33PM -23.8067 133.9022 127° Southeast  Level Estimated
01:34PM -23.8083 133.9009 127° Southeast  Level FlightAware Approximate
01:35PM -23.8067 133.9022 127° Southeast  Level Estimated
01:36PM -23.8083 133.9009 127° Southeast  Level FlightAware Approximate
01:37PM -23.8067 133.9022 127° Southeast  Level Estimated
01:38PM -23.8083 133.9009 127° Southeast  Level FlightAware Approximate
01:39PM -23.8067 133.9022 127° Southeast  Level Estimated
01:40PM -23.8083 133.9009 127° Southeast  Level FlightAware Approximate
01:41PM -23.8067 133.9022 127° Southeast  Level Estimated
01:42PM -23.8083 133.9009 127° Southeast  Level FlightAware Approximate
01:43PM -23.8067 133.9022 127° Southeast  Level Estimated
01:44PM -23.8083 133.9009 127° Southeast  Level FlightAware Approximate
01:45PM -23.8067 133.9022 127° Southeast  Level Estimated
01:46PM -23.8083 133.9009 127° Southeast  Level FlightAware Approximate
01:47PM -23.8067 133.9022 127° Southeast  Level Estimated
01:48PM -23.8083 133.9009 127° Southeast  Level FlightAware Approximate
01:49PM -23.8067 133.9022 127° Southeast  Level Estimated
01:50PM -23.8083 133.9009 127° Southeast  Level FlightAware Approximate
01:51PM -23.8067 133.9022 127° Southeast  Level Estimated
01:52PM -23.8083 133.9009 127° Southeast  Level FlightAware Approximate
01:53PM -23.8067 133.9022 127° Southeast  Level Estimated
01:54PM -23.8083 133.9009 127° Southeast  Level FlightAware Approximate
01:55PM -23.8067 133.9022 127° Southeast  Level Estimated
01:56PM -23.8083 133.9009 127° Southeast  Level FlightAware Approximate
01:57PM -23.8067 133.9022 127° Southeast  Level Estimated
01:58PM -23.8083 133.9009 127° Southeast  Level FlightAware Approximate
01:59PM -23.8067 133.9022 127° Southeast  Level Estimated
02:00PM -23.8083 133.9009 127° Southeast  Level FlightAware Approximate
02:01PM -23.8067 133.9022 127° Southeast  Level Estimated
02:02PM -23.8083 133.9009 127° Southeast  Level FlightAware Approximate
02:03PM -23.8067 133.9022 127° Southeast  Level Estimated
02:04PM -23.8083 133.9009 127° Southeast  Level FlightAware Approximate
02:05PM -23.8067 133.9022 127° Southeast  Level Estimated
02:06PM -23.8083 133.9009 127° Southeast  Level FlightAware Approximate
02:07PM -23.8067 133.9022 127° Southeast  Level Estimated
02:08PM -23.8083 133.9009 127° Southeast  Level FlightAware Approximate
02:09PM -23.8067 133.9022 127° Southeast  Level Estimated
02:10PM -23.8083 133.9009 127° Southeast  Level FlightAware Approximate
02:11PM -23.8067 133.9022 127° Southeast  Level Estimated
02:12PM -23.8083 133.9009 127° Southeast  Level FlightAware Approximate
02:13PM -23.8067 133.9022 127° Southeast  Level Estimated
02:14PM -23.8083 133.9009 127° Southeast  Level FlightAware Approximate
02:15PM -23.8067 133.9022 127° Southeast  Level Estimated
02:16PM -23.8083 133.9009 127° Southeast  Level FlightAware Approximate
02:17PM -23.8067 133.9022 127° Southeast  Level Estimated
02:18PM -23.8083 133.9009 127° Southeast  Level FlightAware Approximate
02:19PM -23.8067 133.9022 127° Southeast  Level Estimated
02:20PM -23.8083 133.9009 127° Southeast  Level FlightAware Approximate
02:21PM -23.8067 133.9022 127° Southeast  Level Estimated
02:22PM -23.8083 133.9009 127° Southeast  Level FlightAware Approximate
02:23PM -23.8067 133.9022 127° Southeast  Level Estimated
02:24PM -23.8083 133.9009 127° Southeast  Level FlightAware Approximate
02:25PM -23.8067 133.9022 127° Southeast  Level Estimated
02:26PM -23.8083 133.9009 127° Southeast  Level FlightAware Approximate
02:27PM -23.8067 133.9022 127° Southeast  Level Estimated
02:28PM -23.8083 133.9009 127° Southeast  Level FlightAware Approximate
02:29PM -23.8067 133.9022 127° Southeast  Level Estimated
02:30PM -23.8083 133.9009 127° Southeast  Level FlightAware Approximate
02:31PM -23.8067 133.9022 127° Southeast  Level Estimated
02:32PM -23.8083 133.9009 127° Southeast  Level FlightAware Approximate
02:33PM -23.8067 133.9022 127° Southeast  Level Estimated
02:34PM -23.8083 133.9009 127° Southeast  Level FlightAware Approximate
02:35PM -23.8067 133.9022 127° Southeast  Level Estimated
02:36PM -23.8083 133.9009 127° Southeast  Level FlightAware Approximate
02:37PM -23.8067 133.9022 127° Southeast  Level Estimated
02:38PM -23.8083 133.9009 127° Southeast  Level FlightAware Approximate
02:39PM -23.8067 133.9022 127° Southeast  Level Estimated
02:40PM -23.8083 133.9009 127° Southeast  Level FlightAware Approximate
02:41PM -23.8067 133.9022 127° Southeast  Level Estimated
02:42PM -23.8083 133.9009 127° Southeast  Level FlightAware Approximate
02:43PM -23.8067 133.9022 127° Southeast  Level Estimated
02:44PM -23.8083 133.9009 127° Southeast  Level FlightAware Approximate
02:45PM -23.8067 133.9022 127° Southeast  Level Estimated
02:46PM -23.8083 133.9009 127° Southeast  Level FlightAware Approximate
02:47PM -23.8067 133.9022 127° Southeast  Level Estimated
02:48PM -23.8083 133.9009 127° Southeast  Level FlightAware Approximate
02:49PM -23.8067 133.9022 127° Southeast  Level Estimated
02:50PM -23.8083 133.9009 127° Southeast  Level FlightAware Approximate
02:51PM -23.8067 133.9022 127° Southeast  Level Estimated
02:52PM -23.8083 133.9009 127° Southeast  Level FlightAware Approximate
02:53PM -23.8067 133.9022 127° Southeast  Level Estimated
02:54PM -23.8083 133.9009 127° Southeast  Level FlightAware Approximate
02:55PM -23.8067 133.9022 127° Southeast  Level Estimated
02:56PM -23.8083 133.9009 127° Southeast  Level FlightAware Approximate
02:57PM -23.8067 133.9022 127° Southeast  Level Estimated
02:58PM -23.8083 133.9009 127° Southeast  Level FlightAware Approximate
02:59PM -23.8067 133.9022 127° Southeast  Level Estimated
03:00PM -23.8083 133.9009 127° Southeast  Level FlightAware Approximate
03:01PM -23.8067 133.9022 127° Southeast  Level Estimated
03:02PM -23.8083 133.9009 127° Southeast  Level FlightAware Approximate
03:03PM -23.8067 133.9022 127° Southeast  Level Estimated
03:04PM -23.8083 133.9009 127° Southeast  Level FlightAware Approximate
03:05PM -23.8067 133.9022 127° Southeast  Level Estimated
03:06PM -23.8083 133.9009 127° Southeast  Level FlightAware Approximate
03:07PM -23.8067 133.9022 127° Southeast  Level Estimated
03:08PM -23.8083 133.9009 127° Southeast  Level FlightAware Approximate
03:09PM -23.8067 133.9022 127° Southeast  Level Estimated
03:10PM -23.8083 133.9009 127° Southeast  Level FlightAware Approximate
03:11PM -23.8067 133.9022 127° Southeast  Level Estimated
03:12PM -23.8083 133.9009 127° Southeast  Level FlightAware Approximate
03:13PM -23.8067 133.9022 127° Southeast  Level Estimated
03:14PM -23.8083 133.9009 127° Southeast  Level FlightAware Approximate
03:15PM -23.8067 133.9022 127° Southeast  Level Estimated
03:16PM -23.8083 133.9009 127° Southeast  Level FlightAware Approximate
03:17PM -23.8067 133.9022 127° Southeast  Level Estimated
03:18PM -23.8083 133.9009 127° Southeast  Level FlightAware Approximate
03:19PM -23.8067 133.9022 127° Southeast  Level Estimated
03:20PM -23.8083 133.9009 127° Southeast  Level FlightAware Approximate
03:21PM -23.8067 133.9022 127° Southeast  Level Estimated
03:22PM -23.8083 133.9009 127° Southeast  Level FlightAware Approximate
03:23PM -23.8067 133.9022 127° Southeast  Level Estimated
03:24PM -23.8083 133.9009 127° Southeast  Level FlightAware Approximate
03:25PM -23.8067 133.9022 127° Southeast  Level Estimated
03:26PM -23.8083 133.9009 127° Southeast  Level FlightAware Approximate
03:27PM -23.8067 133.9022 127° Southeast  Level Estimated
03:28PM -23.8083 133.9009 127° Southeast  Level FlightAware Approximate
03:29PM -23.8067 133.9022 127° Southeast  Level Estimated
03:30PM -23.8083 133.9009 127° Southeast  Level FlightAware Approximate
03:31PM -23.8067 133.9022 127° Southeast  Level Estimated
03:32PM -23.8083 133.9009 127° Southeast  Level FlightAware Approximate
03:33PM -23.8067 133.9022 127° Southeast  Level Estimated
03:34PM -23.8083 133.9009 127° Southeast  Level FlightAware Approximate
03:35PM -23.8067 133.9022 127° Southeast  Level Estimated
03:36PM -23.8083 133.9009 127° Southeast  Level FlightAware Approximate
03:37PM -23.8067 133.9022 127° Southeast  Level Estimated
03:38PM -23.8083 133.9009 127° Southeast  Level FlightAware Approximate
03:39PM -23.8067 133.9022 127° Southeast  Level Estimated
03:40PM -23.8083 133.9009 127° Southeast  Level FlightAware Approximate
03:41PM -23.8067 133.9022 127° Southeast  Level Estimated
03:42PM -23.8083 133.9009 127° Southeast  Level FlightAware Approximate
03:43PM -23.8067 133.9022 127° Southeast  Level Estimated
03:44PM -23.8083 133.9009 127° Southeast  Level FlightAware Approximate
03:45PM -23.8067 133.9022 127° Southeast  Level Estimated
03:46PM -23.8083 133.9009 127° Southeast  Level FlightAware Approximate
03:47PM -23.8067 133.9022 127° Southeast  Level Estimated
03:48PM -23.8083 133.9009 127° Southeast  Level FlightAware Approximate
03:49PM -23.8067 133.9022 127° Southeast  Level Estimated
03:50PM -23.8083 133.9009 127° Southeast  Level FlightAware Approximate
03:51PM -23.8067 133.9022 127° Southeast  Level Estimated
03:52PM -23.8083 133.9009 127° Southeast  Level FlightAware Approximate
03:53PM -23.8067 133.9022 127° Southeast  Level Estimated
03:54PM -23.8083 133.9009 127° Southeast  Level FlightAware Approximate
03:55PM -23.8067 133.9022 127° Southeast  Level Estimated
03:56PM -23.8083 133.9009 127° Southeast  Level FlightAware Approximate
03:57PM -23.8067 133.9022 127° Southeast  Level Estimated
03:58PM -23.8083 133.9009 127° Southeast  Level FlightAware Approximate
03:59PM -23.8067 133.9022 127° Southeast  Level Estimated
04:00PM -23.8083 133.9009 127° Southeast  Level FlightAware Approximate
04:01PM -23.8067 133.9022 127° Southeast  Level Estimated
04:02PM -23.8083 133.9009 127° Southeast  Level FlightAware Approximate
04:03PM -23.8067 133.9022 127° Southeast  Level Estimated
04:04PM -23.8083 133.9009 127° Southeast  Level FlightAware Approximate
04:05PM -23.8067 133.9022 127° Southeast  Level Estimated
04:06PM -23.8083 133.9009 127° Southeast  Level FlightAware Approximate
04:07PM -23.8067 133.9022 127° Southeast  Level Estimated
04:08PM -23.8083 133.9009 127° Southeast  Level FlightAware Approximate
04:09PM -23.8067 133.9022 127° Southeast  Level Estimated
04:10PM -23.8083 133.9009 127° Southeast  Level FlightAware Approximate
04:11PM -23.8067 133.9022 127° Southeast  Level Estimated
04:12PM -23.8083 133.9009 127° Southeast  Level FlightAware Approximate
04:13PM -23.8067 133.9022 127° Southeast  Level Estimated
04:14PM -23.8083 133.9009 127° Southeast  Level FlightAware Approximate
04:15PM -23.8067 133.9022 127° Southeast  Level Estimated
04:16PM -23.8083 133.9009 127° Southeast  Level FlightAware Approximate
04:17PM -23.8067 133.9022 127° Southeast  Level Estimated
04:18PM -23.8083 133.9009 127° Southeast  Level FlightAware Approximate
04:19PM -23.8067 133.9022 127° Southeast  Level Estimated
04:20PM -23.8083 133.9009 127° Southeast  Level FlightAware Approximate
04:21PM -23.8067 133.9022 127° Southeast  Level Estimated
04:22PM -23.8083 133.9009 127° Southeast  Level FlightAware Approximate
04:23PM -23.8067 133.9022 127° Southeast  Level Estimated
04:24PM -23.8083 133.9009 127° Southeast  Level FlightAware Approximate
04:25PM -23.8067 133.9022 127° Southeast  Level Estimated
04:26PM -23.8083 133.9009 127° Southeast  Level FlightAware Approximate
04:27PM -23.8067 133.9022 127° Southeast  Level Estimated
04:28PM -23.8083 133.9009 127° Southeast  Level FlightAware Approximate
04:29PM -23.8067 133.9022 127° Southeast  Level Estimated
04:30PM -23.8083 133.9009 127° Southeast  Level FlightAware Approximate
04:31PM -23.8067 133.9022 127° Southeast  Level Estimated
04:32PM -23.8083 133.9009 127° Southeast  Level FlightAware Approximate
04:33PM -23.8067 133.9022 127° Southeast  Level Estimated
04:34PM -23.8083 133.9009 127° Southeast  Level FlightAware Approximate
04:35PM -23.8067 133.9022 127° Southeast  Level Estimated
04:36PM -23.8083 133.9009 127° Southeast  Level FlightAware Approximate
04:37PM -23.8067 133.9022 127° Southeast  Level Estimated
04:38PM -23.8083 133.9009 127° Southeast  Level FlightAware Approximate
04:39PM -23.8067 133.9022 127° Southeast  Level Estimated
04:40PM -23.8083 133.9009 127° Southeast  Level FlightAware Approximate
04:41PM -23.8067 133.9022 127° Southeast  Level Estimated
04:42PM -23.8083 133.9009 127° Southeast  Level FlightAware Approximate
04:43PM -23.8067 133.9022 127° Southeast  Level Estimated
04:44PM -23.8083 133.9009 127° Southeast  Level FlightAware Approximate
04:45PM -23.8067 133.9022 127° Southeast  Level Estimated
04:46PM -23.8083 133.9009 127° Southeast  Level FlightAware Approximate
04:47PM -23.8067 133.9022 127° Southeast  Level Estimated
04:48PM -23.8083 133.9009 127° Southeast  Level FlightAware Approximate
04:49PM -23.8067 133.9022 127° Southeast  Level Estimated
04:50PM -23.8083 133.9009 127° Southeast  Level FlightAware Approximate
04:51PM -23.8067 133.9022 127° Southeast  Level Estimated
04:52PM -23.8083 133.9009 127° Southeast  Level FlightAware Approximate
04:53PM -23.8067 133.9022 127° Southeast  Level Estimated
04:54PM -23.8083 133.9009 127° Southeast  Level FlightAware Approximate
04:55PM -23.8067 133.9022 127° Southeast  Level Estimated
04:56PM -23.8083 133.9009 127° Southeast  Level FlightAware Approximate
04:57PM -23.8067 133.9022 127° Southeast  Level Estimated
04:58PM -23.8083 133.9009 127° Southeast  Level FlightAware Approximate
04:59PM -23.8067 133.9022 127° Southeast  Level Estimated
05:00PM -23.8083 133.9009 127° Southeast  Level FlightAware Approximate
05:01PM -23.8067 133.9022 127° Southeast  Level Estimated
05:02PM -23.8083 133.9009 127° Southeast  Level FlightAware Approximate
05:03PM -23.8067 133.9022 127° Southeast  Level Estimated
05:04PM -23.8083 133.9009 127° Southeast  Level FlightAware Approximate
05:05PM -23.8067 133.9022 127° Southeast  Level Estimated
05:06PM -23.8083 133.9009 127° Southeast  Level FlightAware Approximate
05:07PM -23.8067 133.9022 127° Southeast  Level Estimated
05:08PM -23.8083 133.9009 127° Southeast  Level FlightAware Approximate
05:09PM -23.8067 133.9022 127° Southeast  Level Estimated
05:10PM -23.8083 133.9009 127° Southeast  Level FlightAware Approximate
05:11PM -23.8067 133.9022 127° Southeast  Level Estimated
05:12PM -23.8083 133.9009 127° Southeast  Level FlightAware Approximate
05:13PM -23.8067 133.9022 127° Southeast  Level Estimated
05:14PM -23.8083 133.9009 127° Southeast  Level FlightAware Approximate
05:15PM -23.8067 133.9022 127° Southeast  Level Estimated
05:16PM -23.8083 133.9009 127° Southeast  Level FlightAware Approximate
05:17PM -23.8067 133.9022 127° Southeast  Level Estimated
05:18PM -23.8083 133.9009 127° Southeast  Level FlightAware Approximate
05:19PM -23.8067 133.9022 127° Southeast  Level Estimated
05:20PM -23.8083 133.9009 127° Southeast  Level FlightAware Approximate
05:21PM -23.8067 133.9022 127° Southeast  Level Estimated
05:22PM -23.8083 133.9009 127° Southeast  Level FlightAware Approximate
05:23PM -23.8067 133.9022 127° Southeast  Level Estimated
05:24PM -23.8083 133.9009 127° Southeast  Level FlightAware Approximate
05:25PM -23.8067 133.9022 127° Southeast  Level Estimated
05:26PM -23.8083 133.9009 127° Southeast  Level FlightAware Approximate
05:27PM -23.8067 133.9022 127° Southeast  Level Estimated
05:28PM -23.8083 133.9009 127° Southeast  Level FlightAware Approximate
05:29PM -23.8067 133.9022 127° Southeast  Level Estimated
05:30PM -23.8083 133.9009 127° Southeast  Level FlightAware Approximate
05:31PM -23.8067 133.9022 127° Southeast  Level Estimated
05:32PM -23.8083 133.9009 127° Southeast  Level FlightAware Approximate
05:33PM -23.8067 133.9022 127° Southeast  Level Estimated
05:34PM -23.8083 133.9009 127° Southeast  Level FlightAware Approximate
05:35PM -23.8067 133.9022 127° Southeast  Level Estimated
05:36PM -23.8083 133.9009 127° Southeast  Level FlightAware Approximate
05:37PM -23.8067 133.9022 127° Southeast  Level Estimated
05:38PM -23.8083 133.9009 127° Southeast  Level FlightAware Approximate
05:39PM -23.8067 133.9022 127° Southeast  Level Estimated
05:40PM -23.8083 133.9009 127° Southeast  Level FlightAware Approximate
05:41PM -23.8067 133.9022 127° Southeast  Level Estimated
05:42PM -23.8083 133.9009 127° Southeast  Level FlightAware Approximate
05:43PM -23.8067 133.9022 127° Southeast  Level Estimated
05:44PM -23.8083 133.9009 127° Southeast  Level FlightAware Approximate
05:45PM -23.8067 133.9022 127° Southeast  Level Estimated
05:46PM -23.8083 133.9009 127° Southeast  Level FlightAware Approximate
05:47PM -23.8067 133.9022 127° Southeast  Level Estimated
05:48PM -23.8083 133.9009 127° Southeast  Level FlightAware Approximate
05:49PM -23.8067 133.9022 127° Southeast  Level Estimated
05:50PM -23.8083 133.9009 127° Southeast  Level FlightAware Approximate
05:51PM -23.8067 133.9022 127° Southeast  Level Estimated
05:52PM -23.8083 133.9009 127° Southeast  Level FlightAware Approximate
05:53PM -23.8067 133.9022 127° Southeast  Level Estimated
05:54PM -23.8083 133.9009 127° Southeast  Level FlightAware Approximate
05:55PM -23.8067 133.9022 127° Southeast  Level Estimated
05:56PM -23.8083 133.9009 127° Southeast  Level FlightAware Approximate
05:57PM -23.8067 133.9022 127° Southeast  Level Estimated
05:58PM -23.8083 133.9009 127° Southeast  Level FlightAware Approximate
05:59PM -23.8067 133.9022 127° Southeast  Level Estimated
06:00PM -23.8083 133.9009 127° Southeast  Level FlightAware Approximate
06:01PM -23.8067 133.9022 127° Southeast  Level Estimated
06:02PM -23.8083 133.9009 127° Southeast  Level FlightAware Approximate
06:03PM -23.8067 133.9022 127° Southeast  Level Estimated
06:04PM -23.8083 133.9009 127° Southeast  Level FlightAware Approximate
06:05PM -23.8067 133.9022 127° Southeast  Level Estimated
06:06PM -23.8083 133.9009 127° Southeast  Level FlightAware Approximate
06:07PM -23.8067 133.9022 127° Southeast  Level Estimated
06:08PM -23.8083 133.9009 127° Southeast  Level FlightAware Approximate
06:09PM -23.8067 133.9022 127° Southeast  Level Estimated
06:10PM -23.8083 133.9009 127° Southeast  Level FlightAware Approximate
06:11PM -23.8067 133.9022 127° Southeast  Level Estimated
06:12PM -23.8083 133.9009 127° Southeast  Level FlightAware Approximate
06:13PM -23.8067 133.9022 127° Southeast  Level Estimated
06:14PM -23.8083 133.9009 127° Southeast  Level FlightAware Approximate
06:15PM -23.8067 133.9022 127° Southeast  Level Estimated
06:16PM -23.8083 133.9009 127° Southeast  Level FlightAware Approximate
06:17PM -23.8067 133.9022 127° Southeast  Level Estimated
06:18PM -23.8083 133.9009 127° Southeast  Level FlightAware Approximate
06:19PM -23.8067 133.9022 127° Southeast  Level Estimated
06:20PM -23.8083 133.9009 127° Southeast  Level FlightAware Approximate
06:21PM -23.8067 133.9022 127° Southeast  Level Estimated
06:22PM -23.8083 133.9009 127° Southeast  Level FlightAware Approximate
06:23PM -23.8067 133.9022 127° Southeast  Level Estimated
06:24PM -23.8083 133.9009 127° Southeast  Level FlightAware Approximate
06:25PM -23.8067 133.9022 127° Southeast  Level Estimated
06:26PM -23.8083 133.9009 127° Southeast  Level FlightAware Approximate
06:27PM -23.8067 133.9022 127° Southeast  Level Estimated
06:28PM -23.8083 133.9009 127° Southeast  Level FlightAware Approximate
06:29PM -23.8067 133.9022 127° Southeast  Level Estimated
06:30PM -23.8083 133.9009 127° Southeast  Level FlightAware Approximate
06:31PM -23.8067 133.9022 127° Southeast  Level Estimated
06:32PM -23.8083 133.9009 127° Southeast  Level FlightAware Approximate
06:33PM -23.8067 133.9022 127° Southeast  Level Estimated
06:34PM -23.8083 133.9009 127° Southeast  Level FlightAware Approximate
06:35PM -23.8067 133.9022 127° Southeast  Level Estimated
06:36PM -23.8083 133.9009 127° Southeast  Level FlightAware Approximate
06:37PM -23.8067 133.9022 127° Southeast  Level Estimated
06:38PM -23.8083 133.9009 127° Southeast  Level FlightAware Approximate
06:39PM -23.8067 133.9022 127° Southeast  Level Estimated
06:40PM -23.8083 133.9009 127° Southeast  Level FlightAware Approximate
06:41PM -23.8067 133.9022 127° Southeast  Level Estimated
06:42PM -23.8083 133.9009 127° Southeast  Level FlightAware Approximate
06:43PM -23.8067 133.9022 127° Southeast  Level Estimated
06:44PM -23.8083 133.9009 127° Southeast  Level FlightAware Approximate
06:45PM -23.8067 133.9022 127° Southeast  Level Estimated
06:46PM -23.8083 133.9009 127° Southeast  Level FlightAware Approximate
06:47PM -23.8067 133.9022 127° Southeast  Level Estimated
06:48PM -23.8083 133.9009 127° Southeast  Level FlightAware Approximate
06:49PM -23.8067 133.9022 127° Southeast  Level Estimated
06:50PM -23.8083 133.9009 127° Southeast  Level FlightAware Approximate
06:51PM -23.8067 133.9022 127° Southeast  Level Estimated
06:52PM -23.8083 133.9009 127° Southeast  Level FlightAware Approximate
06:53PM -23.8067 133.9022 127° Southeast  Level Estimated
06:54PM -23.8083 133.9009 127° Southeast  Level FlightAware Approximate
06:55PM -23.8067 133.9022 127° Southeast  Level Estimated
06:56PM -23.8083 133.9009 127° Southeast  Level FlightAware Approximate
06:57PM -23.8067 133.9022 127° Southeast  Level Estimated
06:58PM -23.8083 133.9009 127° Southeast  Level FlightAware Approximate
06:59PM -23.8067 133.9022 127° Southeast  Level Estimated
07:00PM -23.8083 133.9009 127° Southeast  Level FlightAware Approximate
07:01PM -23.8067 133.9022 127° Southeast  Level Estimated
07:02PM -23.8083 133.9009 127° Southeast  Level FlightAware Approximate
07:03PM -23.8067 133.9022 127° Southeast  Level Estimated
07:04PM -23.8083 133.9009 127° Southeast  Level FlightAware Approximate
07:05PM -23.8067 133.9022 127° Southeast  Level Estimated
07:06PM -23.8083 133.9009 127° Southeast  Level FlightAware Approximate
07:07PM -23.8067 133.9022 127° Southeast  Level Estimated
07:08PM -23.8083 133.9009 127° Southeast  Level FlightAware Approximate
07:09PM -23.8067 133.9022 127° Southeast  Level Estimated
07:10PM -23.8083 133.9009 127° Southeast  Level FlightAware Approximate
07:11PM -23.8067 133.9022 127° Southeast  Level Estimated
07:12PM -23.8083 133.9009 127° Southeast  Level FlightAware Approximate
07:13PM -23.8067 133.9022 127° Southeast  Level Estimated
07:14PM -23.8083 133.9009 127° Southeast  Level FlightAware Approximate
07:15PM -23.8067 133.9022 127° Southeast  Level Estimated
07:16PM -23.8083 133.9009 127° Southeast  Level FlightAware Approximate
07:17PM -23.8067 133.9022 127° Southeast  Level Estimated
07:18PM -23.8083 133.9009 127° Southeast  Level FlightAware Approximate
07:19PM -23.8067 133.9022 127° Southeast  Level Estimated
07:20PM -23.8083 133.9009 127° Southeast  Level FlightAware Approximate
07:21PM -23.8067 133.9022 127° Southeast  Level Estimated
07:22PM -23.8083 133.9009 127° Southeast  Level FlightAware Approximate
07:23PM -23.8067 133.9022 127° Southeast  Level Estimated
07:24PM -23.8083 133.9009 127° Southeast  Level FlightAware Approximate
07:25PM -23.8067 133.9022 127° Southeast  Level Estimated
07:26PM -23.8083 133.9009 127° Southeast  Level FlightAware Approximate
07:27PM -23.8067 133.9022 127° Southeast  Level Estimated
07:28PM -23.8083 133.9009 127° Southeast  Level FlightAware Approximate
07:29PM -23.8067 133.9022 127° Southeast  Level Estimated
07:30PM -23.8083 133.9009 127° Southeast  Level FlightAware Approximate
07:31PM -23.8067 133.9022 127° Southeast  Level Estimated
07:32PM -23.8083 133.9009 127° Southeast  Level FlightAware Approximate
07:33PM -23.8067 133.9022 127° Southeast  Level Estimated
07:34PM -23.8083 133.9009 127° Southeast  Level FlightAware Approximate
07:35PM -23.8067 133.9022 127° Southeast  Level Estimated
07:36PM -23.8083 133.9009 127° Southeast  Level FlightAware Approximate
07:37PM -23.8067 133.9022 127° Southeast  Level Estimated
07:38PM -23.8083 133.9009 127° Southeast  Level FlightAware Approximate
07:39PM -23.8067 133.9022 127° Southeast  Level Estimated
07:40PM -23.8083 133.9009 127° Southeast  Level FlightAware Approximate
07:41PM -23.8067 133.9022 127° Southeast  Level Estimated
07:42PM -23.8083 133.9009 127° Southeast  Level FlightAware Approximate
07:43PM -23.8067 133.9022 127° Southeast  Level Estimated
07:44PM -23.8083 133.9009 127° Southeast  Level FlightAware Approximate
07:45PM -23.8067 133.9022 127° Southeast  Level Estimated
07:46PM -23.8083 133.9009 127° Southeast  Level FlightAware Approximate
07:47PM -23.8067 133.9022 127° Southeast  Level Estimated
07:48PM -23.8083 133.9009 127° Southeast  Level FlightAware Approximate
07:49PM -23.8067 133.9022 127° Southeast  Level Estimated
07:50PM -23.8083 133.9009 127° Southeast  Level FlightAware Approximate
07:51PM -23.8067 133.9022 127° Southeast  Level Estimated
07:52PM -23.8083 133.9009 127° Southeast  Level FlightAware Approximate
07:53PM -23.8067 133.9022 127° Southeast  Level Estimated
07:54PM -23.8083 133.9009 127° Southeast  Level FlightAware Approximate
07:55PM -23.8067 133.9022 127° Southeast  Level Estimated
07:56PM -23.8083 133.9009 127° Southeast  Level FlightAware Approximate
07:57PM -23.8067 133.9022 127° Southeast  Level Estimated
07:58PM -23.8083 133.9009 127° Southeast  Level FlightAware Approximate
07:59PM -23.8067 133.9022 127° Southeast  Level Estimated
08:00PM -23.8083 133.9009 127° Southeast  Level FlightAware Approximate
08:01PM -23.8067 133.9022 127° Southeast  Level Estimated
08:02PM -23.8083 133.9009 127° Southeast  Level FlightAware Approximate
08:03PM -23.8067 133.9022 127° Southeast  Level Estimated
08:04PM -23.8083 133.9009 127° Southeast  Level FlightAware Approximate
08:05PM -23.8067 133.9022 127° Southeast  Level Estimated
08:06PM -23.8083 133.9009 127° Southeast  Level FlightAware Approximate
08:07PM -23.8067 133.9022 127° Southeast  Level Estimated
08:08PM -23.8083 133.9009 127° Southeast  Level FlightAware Approximate
08:09PM -23.8067 133.9022 127° Southeast  Level Estimated
08:10PM -23.8083 133.9009 127° Southeast  Level FlightAware Approximate
08:11PM -23.8067 133.9022 127° Southeast  Level Estimated
08:12PM -23.8083 133.9009 127° Southeast  Level FlightAware Approximate
08:13PM -23.8067 133.9022 127° Southeast  Level Estimated
08:14PM -23.8083 133.9009 127° Southeast  Level FlightAware Approximate
08:15PM -23.8067 133.9022 127° Southeast  Level Estimated
08:16PM -23.8083 133.9009 127° Southeast  Level FlightAware Approximate
08:17PM -23.8067 133.9022 127° Southeast  Level Estimated
08:18PM -23.8083 133.9009 127° Southeast  Level FlightAware Approximate
08:19PM -23.8067 133.9022 127° Southeast  Level Estimated
08:20PM -23.8083 133.9009 127° Southeast  Level FlightAware Approximate
08:21PM -23.8067 133.9022 127° Southeast  Level Estimated
08:22PM -23.8083 133.9009 127° Southeast  Level FlightAware Approximate
08:23PM -23.8067 133.9022 127° Southeast  Level Estimated
08:24PM -23.8083 133.9009 127° Southeast  Level FlightAware Approximate
08:25PM -23.8067 133.9022 127° Southeast  Level Estimated
08:26PM -23.8083 133.9009 127° Southeast  Level FlightAware Approximate
08:27PM -23.8067 133.9022 127° Southeast  Level Estimated
08:28PM -23.8083 133.9009 127° Southeast  Level FlightAware Approximate
08:29PM -23.8067 133.9022 127° Southeast  Level Estimated
08:30PM -23.8083 133.9009 127° Southeast  Level FlightAware Approximate
08:31PM -23.8067 133.9022 127° Southeast  Level Estimated
08:32PM -23.8083 133.9009 127° Southeast  Level FlightAware Approximate
08:33PM -23.8067 133.9022 127° Southeast  Level Estimated
08:34PM -23.8083 133.9009 127° Southeast  Level FlightAware Approximate
08:35PM -23.8067 133.9022 127° Southeast  Level Estimated
08:36PM -23.8083 133.9009 127° Southeast  Level FlightAware Approximate
08:37PM -23.8067 133.9022 127° Southeast  Level Estimated
08:38PM -23.8083 133.9009 127° Southeast  Level FlightAware Approximate
08:39PM -23.8067 133.9022 127° Southeast  Level Estimated
08:40PM -23.8083 133.9009 127° Southeast  Level FlightAware Approximate
08:41PM -23.8067 133.9022 127° Southeast  Level Estimated
08:42PM -23.8083 133.9009 127° Southeast  Level FlightAware Approximate
08:43PM -23.8067 133.9022 127° Southeast  Level Estimated
08:44PM -23.8083 133.9009 127° Southeast  Level FlightAware Approximate
08:45PM -23.8067 133.9022 127° Southeast  Level Estimated
08:46PM -23.8083 133.9009 127° Southeast  Level FlightAware Approximate
08:47PM -23.8067 133.9022 127° Southeast  Level Estimated
08:48PM -23.8083 133.9009 127° Southeast  Level FlightAware Approximate
08:49PM -23.8067 133.9022 127° Southeast  Level Estimated
08:50PM -23.8083 133.9009 127° Southeast  Level FlightAware Approximate
08:51PM -23.8067 133.9022 127° Southeast  Level Estimated
08:52PM -23.8083 133.9009 127° Southeast  Level FlightAware Approximate
08:53PM -23.8067 133.9022 127° Southeast  Level Estimated
08:54PM -23.8083 133.9009 127° Southeast  Level FlightAware Approximate
08:55PM -23.8067 133.9022 127° Southeast  Level Estimated
08:56PM -23.8083 133.9009 127° Southeast  Level FlightAware Approximate
08:57PM -23.8067 133.9022 127° Southeast  Level Estimated
08:58PM -23.8083 133.9009 127° Southeast  Level FlightAware Approximate
08:59PM -23.8067 133.9022 127° Southeast  Level Estimated
09:00PM -23.8083 133.9009 127° Southeast  Level FlightAware Approximate
09:01PM -23.8067 133.9022 127° Southeast  Level Estimated
09:02PM -23.8083 133.9009 127° Southeast  Level FlightAware Approximate
09:03PM -23.8067 133.9022 127° Southeast  Level Estimated
09:04PM -23.8083 133.9009 127° Southeast  Level FlightAware Approximate
09:05PM -23.8067 133.9022 127° Southeast  Level Estimated
09:06PM -23.8083 133.9009 127° Southeast  Level FlightAware Approximate
09:07PM -23.8067 133.9022 127° Southeast  Level Estimated
09:08PM -23.8083 133.9009 127° Southeast  Level FlightAware Approximate
09:09PM -23.8067 133.9022 127° Southeast  Level Estimated
09:10PM -23.8083 133.9009 127° Southeast  Level FlightAware Approximate
09:11PM -23.8067 133.9022 127° Southeast  Level Estimated
09:12PM -23.8083 133.9009 127° Southeast  Level FlightAware Approximate
09:13PM -23.8067 133.9022 127° Southeast  Level Estimated
09:14PM -23.8083 133.9009 127° Southeast  Level FlightAware Approximate
09:15PM -23.8067 133.9022 127° Southeast  Level Estimated
09:16PM -23.8083 133.9009 127° Southeast  Level FlightAware Approximate
09:17PM -23.8067 133.9022 127° Southeast  Level Estimated
09:18PM -23.8083 133.9009 127° Southeast  Level FlightAware Approximate
09:19PM -23.8067 133.9022 127° Southeast  Level Estimated
09:20PM -23.8083 133.9009 127° Southeast  Level FlightAware Approximate
09:21PM -23.8067 133.9022 127° Southeast  Level Estimated
09:22PM -23.8083 133.9009 127° Southeast  Level FlightAware Approximate
09:23PM -23.8067 133.9022 127° Southeast  Level Estimated
09:24PM -23.8083 133.9009 127° Southeast  Level FlightAware Approximate
09:25PM -23.8067 133.9022 127° Southeast  Level Estimated
09:26PM -23.8083 133.9009 127° Southeast  Level FlightAware Approximate
09:27PM -23.8067 133.9022 127° Southeast  Level Estimated
09:28PM -23.8083 133.9009 127° Southeast  Level FlightAware Approximate